createdAt,value
2018-05-03T00:00:48.429Z,15.76
2018-05-03T00:01:48.061Z,15.73
2018-05-03T00:02:48.008Z,15.68
2018-05-03T00:03:47.776Z,15.7
2018-05-03T00:04:47.769Z,15.67
2018-05-03T00:05:48.097Z,15.64
2018-05-03T00:06:48.391Z,15.68
2018-05-03T00:07:48.138Z,15.68
2018-05-03T00:08:48.145Z,15.68
2018-05-03T00:09:48.422Z,15.68
2018-05-03T00:10:48.444Z,15.7
2018-05-03T00:11:48.462Z,15.67
2018-05-03T00:12:48.560Z,15.64
2018-05-03T00:13:48.223Z,15.64
2018-05-03T00:14:48.524Z,15.68
2018-05-03T00:15:48.540Z,15.62
2018-05-03T00:16:48.672Z,15.58
2018-05-03T00:17:48.301Z,15.72
2018-05-03T00:18:48.319Z,15.62
2018-05-03T00:19:48.613Z,15.7
2018-05-03T00:20:48.354Z,15.55
2018-05-03T00:21:48.658Z,15.67
2018-05-03T00:22:48.401Z,15.65
2018-05-03T00:23:48.695Z,15.64
2018-05-03T00:24:48.711Z,15.61
2018-05-03T00:25:48.449Z,15.65
2018-05-03T00:26:48.802Z,15.58
2018-05-03T00:27:48.771Z,15.64
2018-05-03T00:28:48.797Z,15.57
2018-05-03T00:29:48.527Z,15.64
2018-05-03T00:30:48.267Z,15.55
2018-05-03T00:31:48.565Z,15.57
2018-05-03T00:32:48.860Z,15.55
2018-05-03T00:33:48.888Z,15.55
2018-05-03T00:34:48.904Z,15.55
2018-05-03T00:35:48.919Z,15.52
2018-05-03T00:36:48.984Z,15.51
2018-05-03T00:37:48.959Z,15.52
2018-05-03T00:38:48.983Z,15.49
2018-05-03T00:39:48.720Z,15.52
2018-05-03T00:40:49.020Z,15.49
2018-05-03T00:41:49.033Z,15.52
2018-05-03T00:42:49.049Z,15.58
2018-05-03T00:43:48.806Z,15.49
2018-05-03T00:44:49.090Z,15.52
2018-05-03T00:45:49.114Z,15.49
2018-05-03T00:46:48.852Z,15.52
2018-05-03T00:47:49.157Z,15.57
2018-05-03T00:48:49.166Z,15.49
2018-05-03T00:49:49.193Z,15.52
2018-05-03T00:50:49.215Z,15.52
2018-05-03T00:51:49.223Z,15.47
2018-05-03T00:52:48.969Z,15.46
2018-05-03T00:53:49.263Z,15.43
2018-05-03T00:54:49.286Z,15.49
2018-05-03T00:55:49.297Z,15.43
2018-05-03T00:56:49.316Z,15.42
2018-05-03T00:57:49.340Z,15.46
2018-05-03T00:58:49.375Z,15.42
2018-05-03T00:59:49.098Z,15.39
2018-05-03T01:00:49.394Z,15.4
2018-05-03T01:01:49.136Z,15.46
2018-05-03T01:02:49.158Z,15.35
2018-05-03T01:03:49.171Z,15.36
2018-05-03T01:04:49.197Z,15.35
2018-05-03T01:05:49.489Z,15.37
2018-05-03T01:06:49.507Z,15.4
2018-05-03T01:07:49.246Z,15.33
2018-05-03T01:08:49.542Z,15.36
2018-05-03T01:09:49.288Z,15.39
2018-05-03T01:10:49.303Z,15.36
2018-05-03T01:11:49.614Z,15.39
2018-05-03T01:12:49.620Z,15.33
2018-05-03T01:13:49.364Z,15.31
2018-05-03T01:14:49.660Z,15.37
2018-05-03T01:15:49.682Z,15.33
2018-05-03T01:16:49.694Z,15.35
2018-05-03T01:17:49.724Z,15.27
2018-05-03T01:18:49.754Z,15.28
2018-05-03T01:19:49.754Z,15.31
2018-05-03T01:20:49.786Z,15.28
2018-05-03T01:21:49.793Z,15.27
2018-05-03T01:22:49.814Z,15.33
2018-05-03T01:23:49.833Z,15.22
2018-05-03T01:24:49.847Z,15.28
2018-05-03T01:25:49.873Z,15.25
2018-05-03T01:26:49.886Z,15.29
2018-05-03T01:27:49.905Z,15.28
2018-05-03T01:28:49.934Z,15.25
2018-05-03T01:29:49.967Z,15.27
2018-05-03T01:30:49.962Z,15.33
2018-05-03T01:31:49.988Z,15.22
2018-05-03T01:32:50.046Z,15.18
2018-05-03T01:33:50.027Z,15.28
2018-05-03T01:34:49.769Z,15.19
2018-05-03T01:35:50.071Z,15.18
2018-05-03T01:36:50.100Z,15.19
2018-05-03T01:37:50.135Z,15.22
2018-05-03T01:38:50.117Z,15.19
2018-05-03T01:39:50.151Z,15.19
2018-05-03T01:40:50.147Z,15.11
2018-05-03T01:41:50.173Z,15.24
2018-05-03T01:42:50.272Z,15.15
2018-05-03T01:43:49.950Z,15.18
2018-05-03T01:44:50.225Z,15.21
2018-05-03T01:45:50.265Z,15.19
2018-05-03T01:46:50.271Z,15.21
2018-05-03T01:47:50.010Z,15.15
2018-05-03T01:48:49.769Z,15.14
2018-05-03T01:49:50.325Z,15.21
2018-05-03T01:50:50.372Z,15.17
2018-05-03T01:51:50.387Z,15.06
2018-05-03T01:52:50.465Z,15.18
2018-05-03T01:53:50.417Z,15.18
2018-05-03T01:54:50.153Z,15.18
2018-05-03T01:55:50.459Z,15.09
2018-05-03T01:56:50.481Z,15.15
2018-05-03T01:57:50.189Z,15.14
2018-05-03T01:58:50.219Z,15.09
2018-05-03T01:59:50.258Z,15.09
2018-05-03T02:00:50.269Z,15.09
2018-05-03T02:01:50.268Z,15.03
2018-05-03T02:02:50.333Z,15.06
2018-05-03T02:03:50.610Z,15
2018-05-03T02:04:50.628Z,14.97
2018-05-03T02:05:50.083Z,15.04
2018-05-03T02:06:50.382Z,15.02
2018-05-03T02:07:50.723Z,15.02
2018-05-03T02:08:50.715Z,14.99
2018-05-03T02:09:50.724Z,15.03
2018-05-03T02:10:50.461Z,15.03
2018-05-03T02:11:50.463Z,15.04
2018-05-03T02:12:50.486Z,14.97
2018-05-03T02:13:50.783Z,14.97
2018-05-03T02:14:50.807Z,14.99
2018-05-03T02:15:50.828Z,14.97
2018-05-03T02:16:50.569Z,14.96
2018-05-03T02:17:50.841Z,14.97
2018-05-03T02:18:50.979Z,14.97
2018-05-03T02:19:50.906Z,14.96
2018-05-03T02:20:50.917Z,15
2018-05-03T02:21:51.002Z,14.94
2018-05-03T02:22:50.726Z,14.99
2018-05-03T02:23:50.711Z,14.97
2018-05-03T02:24:50.707Z,15
2018-05-03T02:25:51.006Z,15
2018-05-03T02:26:51.050Z,14.92
2018-05-03T02:27:51.088Z,14.92
2018-05-03T02:28:50.790Z,14.92
2018-05-03T02:29:51.095Z,14.91
2018-05-03T02:30:51.108Z,14.91
2018-05-03T02:31:51.141Z,14.94
2018-05-03T02:32:51.123Z,14.89
2018-05-03T02:33:50.887Z,14.94
2018-05-03T02:34:50.910Z,14.94
2018-05-03T02:35:50.916Z,14.89
2018-05-03T02:36:51.219Z,14.92
2018-05-03T02:37:51.247Z,14.85
2018-05-03T02:38:51.250Z,14.85
2018-05-03T02:39:50.998Z,14.81
2018-05-03T02:40:51.300Z,14.84
2018-05-03T02:41:51.042Z,14.82
2018-05-03T02:42:51.055Z,14.82
2018-05-03T02:43:51.057Z,14.78
2018-05-03T02:44:51.080Z,14.88
2018-05-03T02:45:51.380Z,14.79
2018-05-03T02:46:51.408Z,14.84
2018-05-03T02:47:51.475Z,14.77
2018-05-03T02:48:51.167Z,14.82
2018-05-03T02:49:51.176Z,14.84
2018-05-03T02:50:51.460Z,14.85
2018-05-03T02:51:51.484Z,14.78
2018-05-03T02:52:51.594Z,14.79
2018-05-03T02:53:51.529Z,14.77
2018-05-03T02:54:51.668Z,14.79
2018-05-03T02:55:51.563Z,14.78
2018-05-03T02:56:51.583Z,14.78
2018-05-03T02:57:51.606Z,14.79
2018-05-03T02:58:51.614Z,14.79
2018-05-03T02:59:51.675Z,14.77
2018-05-03T03:00:51.678Z,14.77
2018-05-03T03:01:51.673Z,14.77
2018-05-03T03:02:51.418Z,14.73
2018-05-03T03:03:51.728Z,14.66
2018-05-03T03:04:51.715Z,14.72
2018-05-03T03:05:51.507Z,14.81
2018-05-03T03:06:51.779Z,14.73
2018-05-03T03:07:51.498Z,14.73
2018-05-03T03:08:51.532Z,14.78
2018-05-03T03:09:51.549Z,14.77
2018-05-03T03:10:51.575Z,14.77
2018-05-03T03:11:51.858Z,14.78
2018-05-03T03:12:51.689Z,14.7
2018-05-03T03:13:51.607Z,14.72
2018-05-03T03:14:51.640Z,14.77
2018-05-03T03:15:51.372Z,14.62
2018-05-03T03:16:51.750Z,14.66
2018-05-03T03:17:51.973Z,14.69
2018-05-03T03:18:51.972Z,14.72
2018-05-03T03:19:52.021Z,14.72
2018-05-03T03:20:51.732Z,14.7
2018-05-03T03:21:52.042Z,14.68
2018-05-03T03:22:52.076Z,14.65
2018-05-03T03:23:52.100Z,14.59
2018-05-03T03:24:52.110Z,14.68
2018-05-03T03:25:52.118Z,14.66
2018-05-03T03:26:51.859Z,14.6
2018-05-03T03:27:52.156Z,14.65
2018-05-03T03:28:51.890Z,14.7
2018-05-03T03:29:52.189Z,14.66
2018-05-03T03:30:52.207Z,14.6
2018-05-03T03:31:52.210Z,14.68
2018-05-03T03:32:52.690Z,14.66
2018-05-03T03:33:52.006Z,14.68
2018-05-03T03:34:51.725Z,14.63
2018-05-03T03:35:52.302Z,14.62
2018-05-03T03:36:52.340Z,14.54
2018-05-03T03:37:52.385Z,14.69
2018-05-03T03:38:52.364Z,14.62
2018-05-03T03:39:52.378Z,14.51
2018-05-03T03:40:52.410Z,14.51
2018-05-03T03:41:52.413Z,14.55
2018-05-03T03:42:52.461Z,14.53
2018-05-03T03:43:52.180Z,14.54
2018-05-03T03:44:52.466Z,14.55
2018-05-03T03:45:52.489Z,14.58
2018-05-03T03:46:52.240Z,14.51
2018-05-03T03:47:51.958Z,14.58
2018-05-03T03:48:52.258Z,14.55
2018-05-03T03:49:52.574Z,14.58
2018-05-03T03:50:52.586Z,14.51
2018-05-03T03:51:52.583Z,14.55
2018-05-03T03:52:52.683Z,14.55
2018-05-03T03:53:52.636Z,14.51
2018-05-03T03:54:52.648Z,14.47
2018-05-03T03:55:52.398Z,14.47
2018-05-03T03:56:52.137Z,14.51
2018-05-03T03:57:52.431Z,14.51
2018-05-03T03:58:52.156Z,14.47
2018-05-03T03:59:52.756Z,14.5
2018-05-03T04:00:52.481Z,14.54
2018-05-03T04:01:52.799Z,14.54
2018-05-03T04:02:52.837Z,14.5
2018-05-03T04:03:52.818Z,14.47
2018-05-03T04:04:52.555Z,14.54
2018-05-03T04:05:52.849Z,14.54
2018-05-03T04:06:52.596Z,14.58
2018-05-03T04:07:52.895Z,14.53
2018-05-03T04:08:52.631Z,14.47
2018-05-03T04:09:52.357Z,14.51
2018-05-03T04:10:52.945Z,14.55
2018-05-03T04:11:52.970Z,14.5
2018-05-03T04:12:52.978Z,14.47
2018-05-03T04:13:53.027Z,14.54
2018-05-03T04:14:53.140Z,14.5
2018-05-03T04:15:53.051Z,14.53
2018-05-03T04:16:53.038Z,14.47
2018-05-03T04:17:53.067Z,14.48
2018-05-03T04:18:52.851Z,14.54
2018-05-03T04:19:52.841Z,14.53
2018-05-03T04:20:52.847Z,14.5
2018-05-03T04:21:53.126Z,14.5
2018-05-03T04:22:52.870Z,14.51
2018-05-03T04:23:53.171Z,14.5
2018-05-03T04:24:52.927Z,14.48
2018-05-03T04:25:53.201Z,14.54
2018-05-03T04:26:53.217Z,14.55
2018-05-03T04:27:53.252Z,14.48
2018-05-03T04:28:53.317Z,14.5
2018-05-03T04:29:53.291Z,14.54
2018-05-03T04:30:53.317Z,14.51
2018-05-03T04:31:53.029Z,14.53
2018-05-03T04:32:53.346Z,14.54
2018-05-03T04:33:53.069Z,14.6
2018-05-03T04:34:53.379Z,14.59
2018-05-03T04:35:53.401Z,14.63
2018-05-03T04:36:53.415Z,14.55
2018-05-03T04:37:53.161Z,14.59
2018-05-03T04:38:53.220Z,14.54
2018-05-03T04:39:53.481Z,14.68
2018-05-03T04:40:53.490Z,14.62
2018-05-03T04:41:53.526Z,14.51
2018-05-03T04:42:53.565Z,14.55
2018-05-03T04:43:53.552Z,14.66
2018-05-03T04:44:53.271Z,14.7
2018-05-03T04:45:53.578Z,14.68
2018-05-03T04:46:53.373Z,14.65
2018-05-03T04:47:53.608Z,14.69
2018-05-03T04:48:53.672Z,14.63
2018-05-03T04:49:53.361Z,14.62
2018-05-03T04:50:53.667Z,14.68
2018-05-03T04:51:53.697Z,14.68
2018-05-03T04:52:53.709Z,14.59
2018-05-03T04:53:53.791Z,14.63
2018-05-03T04:54:53.734Z,14.65
2018-05-03T04:55:53.830Z,14.65
2018-05-03T04:56:53.488Z,14.65
2018-05-03T04:57:53.538Z,14.62
2018-05-03T04:58:53.600Z,14.69
2018-05-03T04:59:53.552Z,14.65
2018-05-03T05:00:53.840Z,14.68
2018-05-03T05:01:53.869Z,14.66
2018-05-03T05:02:53.888Z,14.73
2018-05-03T05:03:53.921Z,14.7
2018-05-03T05:04:54.122Z,14.72
2018-05-03T05:05:54.024Z,14.73
2018-05-03T05:06:53.982Z,14.7
2018-05-03T05:07:53.979Z,14.7
2018-05-03T05:08:53.714Z,14.79
2018-05-03T05:09:54.012Z,14.77
2018-05-03T05:10:54.014Z,14.73
2018-05-03T05:11:54.052Z,14.72
2018-05-03T05:12:54.104Z,14.84
2018-05-03T05:13:54.140Z,14.82
2018-05-03T05:14:53.882Z,14.81
2018-05-03T05:15:54.141Z,14.73
2018-05-03T05:16:53.873Z,14.73
2018-05-03T05:17:53.929Z,14.85
2018-05-03T05:18:53.921Z,14.82
2018-05-03T05:19:54.193Z,14.77
2018-05-03T05:20:54.227Z,14.78
2018-05-03T05:21:54.224Z,14.79
2018-05-03T05:22:53.974Z,14.77
2018-05-03T05:23:54.342Z,14.82
2018-05-03T05:24:54.040Z,14.85
2018-05-03T05:25:54.338Z,14.84
2018-05-03T05:26:54.039Z,14.82
2018-05-03T05:27:54.369Z,14.82
2018-05-03T05:28:54.417Z,14.89
2018-05-03T05:29:54.386Z,14.81
2018-05-03T05:30:54.599Z,14.89
2018-05-03T05:31:54.418Z,14.88
2018-05-03T05:32:54.160Z,14.92
2018-05-03T05:33:54.229Z,14.89
2018-05-03T05:34:54.179Z,14.91
2018-05-03T05:35:54.506Z,14.99
2018-05-03T05:36:54.534Z,14.96
2018-05-03T05:37:54.236Z,14.99
2018-05-03T05:38:54.167Z,14.97
2018-05-03T05:39:54.303Z,14.91
2018-05-03T05:40:54.601Z,14.97
2018-05-03T05:41:54.594Z,14.96
2018-05-03T05:42:54.630Z,15.03
2018-05-03T05:43:54.407Z,15.02
2018-05-03T05:44:54.394Z,15.02
2018-05-03T05:45:54.403Z,15.02
2018-05-03T05:46:54.399Z,14.99
2018-05-03T05:47:54.714Z,14.99
2018-05-03T05:48:54.163Z,15.07
2018-05-03T05:49:54.769Z,15.02
2018-05-03T05:50:54.818Z,15.02
2018-05-03T05:51:54.491Z,15.02
2018-05-03T05:52:54.783Z,15.04
2018-05-03T05:53:54.554Z,15.03
2018-05-03T05:54:54.841Z,15.03
2018-05-03T05:55:54.578Z,15.04
2018-05-03T05:56:54.581Z,15.17
2018-05-03T05:57:54.882Z,15.11
2018-05-03T05:58:54.915Z,15.1
2018-05-03T05:59:54.918Z,15.19
2018-05-03T06:00:54.960Z,15.1
2018-05-03T06:01:54.974Z,15.18
2018-05-03T06:02:54.971Z,15.14
2018-05-03T06:03:55.001Z,15.14
2018-05-03T06:04:55.040Z,15.22
2018-05-03T06:05:54.777Z,15.17
2018-05-03T06:06:55.076Z,15.24
2018-05-03T06:07:55.293Z,15.25
2018-05-03T06:08:55.111Z,15.25
2018-05-03T06:09:54.846Z,15.29
2018-05-03T06:10:54.570Z,15.29
2018-05-03T06:11:55.154Z,15.33
2018-05-03T06:12:55.162Z,15.35
2018-05-03T06:13:55.174Z,15.4
2018-05-03T06:14:55.224Z,15.42
2018-05-03T06:15:54.951Z,15.42
2018-05-03T06:16:55.261Z,15.44
2018-05-03T06:17:54.990Z,15.42
2018-05-03T06:18:55.265Z,15.44
2018-05-03T06:19:55.321Z,15.49
2018-05-03T06:20:55.029Z,15.47
2018-05-03T06:21:55.078Z,15.51
2018-05-03T06:22:55.065Z,15.51
2018-05-03T06:23:55.090Z,15.55
2018-05-03T06:24:55.131Z,15.67
2018-05-03T06:25:55.187Z,15.62
2018-05-03T06:26:55.145Z,15.65
2018-05-03T06:27:55.468Z,15.7
2018-05-03T06:28:55.466Z,15.72
2018-05-03T06:29:55.230Z,15.79
2018-05-03T06:30:55.512Z,15.83
2018-05-03T06:31:55.546Z,15.84
2018-05-03T06:32:55.563Z,15.91
2018-05-03T06:33:55.548Z,15.91
2018-05-03T06:34:55.344Z,16
2018-05-03T06:35:55.608Z,16.04
2018-05-03T06:36:55.335Z,16.01
2018-05-03T06:37:55.062Z,16.04
2018-05-03T06:38:55.889Z,16.13
2018-05-03T06:39:55.381Z,16.15
2018-05-03T06:40:55.678Z,16.13
2018-05-03T06:41:55.154Z,16.24
2018-05-03T06:42:55.737Z,16.24
2018-05-03T06:43:55.760Z,16.24
2018-05-03T06:44:55.477Z,16.23
2018-05-03T06:45:55.781Z,16.31
2018-05-03T06:46:55.790Z,16.28
2018-05-03T06:47:55.809Z,16.39
2018-05-03T06:48:55.939Z,16.39
2018-05-03T06:49:55.577Z,16.39
2018-05-03T06:50:55.893Z,16.43
2018-05-03T06:51:55.888Z,16.49
2018-05-03T06:52:55.917Z,16.51
2018-05-03T06:53:55.673Z,16.49
2018-05-03T06:54:55.677Z,16.57
2018-05-03T06:55:55.984Z,16.56
2018-05-03T06:56:55.979Z,16.6
2018-05-03T06:57:55.997Z,16.65
2018-05-03T06:58:55.737Z,16.66
2018-05-03T06:59:56.036Z,16.79
2018-05-03T07:00:56.070Z,16.81
2018-05-03T07:01:56.095Z,16.81
2018-05-03T07:02:55.556Z,16.79
2018-05-03T07:03:56.184Z,16.89
2018-05-03T07:04:56.143Z,16.87
2018-05-03T07:05:56.159Z,16.99
2018-05-03T07:06:56.183Z,16.96
2018-05-03T07:07:56.198Z,17.05
2018-05-03T07:08:56.209Z,17.02
2018-05-03T07:09:56.283Z,17.06
2018-05-03T07:10:55.689Z,17.11
2018-05-03T07:11:56.132Z,17.19
2018-05-03T07:12:56.300Z,17.22
2018-05-03T07:13:56.037Z,17.24
2018-05-03T07:14:56.343Z,17.31
2018-05-03T07:15:56.356Z,17.34
2018-05-03T07:16:56.363Z,17.48
2018-05-03T07:17:55.832Z,17.56
2018-05-03T07:18:56.426Z,17.59
2018-05-03T07:19:56.433Z,17.6
2018-05-03T07:20:56.464Z,17.7
2018-05-03T07:21:56.470Z,17.85
2018-05-03T07:22:56.215Z,17.74
2018-05-03T07:23:56.740Z,17.87
2018-05-03T07:24:56.629Z,17.85
2018-05-03T07:25:56.549Z,17.9
2018-05-03T07:26:56.575Z,18.03
2018-05-03T07:27:56.584Z,18.04
2018-05-03T07:28:56.621Z,18.03
2018-05-03T07:29:56.635Z,18.07
2018-05-03T07:30:56.648Z,18.03
2018-05-03T07:31:56.104Z,18.03
2018-05-03T07:32:56.705Z,18.05
2018-05-03T07:33:56.704Z,18.04
2018-05-03T07:34:56.993Z,18.15
2018-05-03T07:35:56.193Z,18.22
2018-05-03T07:36:56.494Z,18.22
2018-05-03T07:37:56.803Z,18.22
2018-05-03T07:38:56.528Z,18.35
2018-05-03T07:39:56.699Z,18.26
2018-05-03T07:40:56.285Z,18.26
2018-05-03T07:41:56.870Z,18.41
2018-05-03T07:42:56.888Z,18.44
2018-05-03T07:43:56.923Z,18.37
2018-05-03T07:44:57.026Z,18.45
2018-05-03T07:45:56.947Z,18.45
2018-05-03T07:46:56.948Z,18.53
2018-05-03T07:47:56.977Z,18.53
2018-05-03T07:48:56.710Z,18.65
2018-05-03T07:49:56.525Z,18.65
2018-05-03T07:50:57.053Z,18.7
2018-05-03T07:51:57.069Z,18.78
2018-05-03T07:52:57.100Z,18.8
2018-05-03T07:53:57.100Z,18.81
2018-05-03T07:54:57.139Z,18.9
2018-05-03T07:55:57.155Z,18.92
2018-05-03T07:56:57.152Z,18.98
2018-05-03T07:57:57.191Z,19.07
2018-05-03T07:58:56.932Z,19.04
2018-05-03T07:59:57.229Z,19.09
2018-05-03T08:00:56.954Z,19.15
2018-05-03T08:01:57.263Z,19.31
2018-05-03T08:02:57.015Z,19.34
2018-05-03T08:03:57.299Z,19.33
2018-05-03T08:04:57.350Z,19.37
2018-05-03T08:05:57.075Z,19.45
2018-05-03T08:06:57.369Z,19.52
2018-05-03T08:07:57.097Z,19.64
2018-05-03T08:08:57.135Z,19.64
2018-05-03T08:09:57.142Z,19.71
2018-05-03T08:10:57.204Z,19.81
2018-05-03T08:11:57.195Z,19.86
2018-05-03T08:12:57.466Z,19.92
2018-05-03T08:13:57.520Z,20.09
2018-05-03T08:14:57.593Z,20.04
2018-05-03T08:15:57.276Z,20.11
2018-05-03T08:16:57.609Z,20.11
2018-05-03T08:17:57.594Z,20.14
2018-05-03T08:18:57.333Z,20.24
2018-05-03T08:19:57.641Z,20.25
2018-05-03T08:20:57.375Z,20.22
2018-05-03T08:21:57.399Z,20.37
2018-05-03T08:22:57.412Z,20.34
2018-05-03T08:23:57.151Z,20.43
2018-05-03T08:24:57.790Z,20.5
2018-05-03T08:25:57.474Z,20.52
2018-05-03T08:26:57.778Z,20.43
2018-05-03T08:27:57.804Z,20.5
2018-05-03T08:28:57.822Z,20.58
2018-05-03T08:29:57.557Z,20.58
2018-05-03T08:30:57.865Z,20.63
2018-05-03T08:31:57.771Z,20.52
2018-05-03T08:32:57.893Z,20.65
2018-05-03T08:33:57.639Z,20.63
2018-05-03T08:34:57.979Z,20.67
2018-05-03T08:35:57.951Z,20.67
2018-05-03T08:36:57.990Z,20.7
2018-05-03T08:37:58.031Z,20.72
2018-05-03T08:38:58.031Z,20.74
2018-05-03T08:39:57.771Z,20.8
2018-05-03T08:40:58.071Z,20.85
2018-05-03T08:41:58.089Z,20.78
2018-05-03T08:42:58.111Z,20.88
2018-05-03T08:43:57.839Z,20.95
2018-05-03T08:44:58.220Z,20.93
2018-05-03T08:45:58.179Z,20.96
2018-05-03T08:46:58.224Z,20.96
2018-05-03T08:47:58.236Z,21.05
2018-05-03T08:48:57.948Z,21.03
2018-05-03T08:49:57.994Z,21.02
2018-05-03T08:50:58.269Z,21.12
2018-05-03T08:51:58.307Z,21.11
2018-05-03T08:52:58.310Z,21.21
2018-05-03T08:53:57.784Z,21.24
2018-05-03T08:54:58.404Z,21.25
2018-05-03T08:55:58.467Z,21.22
2018-05-03T08:56:58.133Z,21.33
2018-05-03T08:57:57.875Z,21.32
2018-05-03T08:58:58.535Z,21.27
2018-05-03T08:59:58.532Z,21.4
2018-05-03T09:00:58.222Z,21.37
2018-05-03T09:01:58.456Z,21.32
2018-05-03T09:02:58.622Z,21.43
2018-05-03T09:03:58.580Z,21.43
2018-05-03T09:04:58.079Z,21.42
2018-05-03T09:05:58.330Z,21.4
2018-05-03T09:06:58.637Z,21.48
2018-05-03T09:07:58.863Z,21.43
2018-05-03T09:08:58.673Z,21.52
2018-05-03T09:09:58.397Z,21.6
2018-05-03T09:10:58.730Z,21.58
2018-05-03T09:11:58.748Z,21.73
2018-05-03T09:12:58.476Z,21.77
2018-05-03T09:13:58.782Z,21.8
2018-05-03T09:14:58.853Z,21.79
2018-05-03T09:15:58.821Z,21.92
2018-05-03T09:16:58.861Z,21.99
2018-05-03T09:17:58.580Z,22.18
2018-05-03T09:18:58.608Z,22.23
2018-05-03T09:19:58.910Z,22.32
2018-05-03T09:20:58.977Z,22.35
2018-05-03T09:21:58.939Z,22.53
2018-05-03T09:22:58.696Z,22.48
2018-05-03T09:23:59.008Z,22.57
2018-05-03T09:24:59.020Z,22.68
2018-05-03T09:25:59.079Z,22.72
2018-05-03T09:26:59.126Z,22.84
2018-05-03T09:27:58.811Z,22.87
2018-05-03T09:28:59.118Z,23.05
2018-05-03T09:29:59.128Z,23.13
2018-05-03T09:30:58.893Z,23.12
2018-05-03T09:31:58.898Z,23.23
2018-05-03T09:32:59.214Z,23.24
2018-05-03T09:33:59.236Z,23.31
2018-05-03T09:34:58.730Z,23.37
2018-05-03T09:35:59.288Z,23.5
2018-05-03T09:36:59.010Z,23.56
2018-05-03T09:37:59.020Z,23.55
2018-05-03T09:38:59.328Z,23.63
2018-05-03T09:39:59.394Z,23.63
2018-05-03T09:40:59.376Z,23.73
2018-05-03T09:41:59.413Z,23.73
2018-05-03T09:42:59.428Z,23.81
2018-05-03T09:43:59.449Z,23.76
2018-05-03T09:44:59.523Z,23.84
2018-05-03T09:45:59.505Z,23.91
2018-05-03T09:46:59.510Z,23.93
2018-05-03T09:47:59.533Z,24.05
2018-05-03T09:48:59.285Z,24.03
2018-05-03T09:49:59.630Z,24.14
2018-05-03T09:50:59.604Z,24.18
2018-05-03T09:51:59.647Z,24.21
2018-05-03T09:52:59.380Z,24.29
2018-05-03T09:53:59.664Z,24.42
2018-05-03T09:54:59.721Z,24.39
2018-05-03T09:55:59.728Z,24.38
2018-05-03T09:56:59.458Z,24.47
2018-05-03T09:57:59.500Z,24.53
2018-05-03T09:58:59.517Z,24.54
2018-05-03T09:59:59.847Z,24.66
2018-05-03T10:00:59.865Z,24.68
2018-05-03T10:01:59.596Z,24.74
2018-05-03T10:02:59.879Z,24.78
2018-05-03T10:03:59.627Z,24.88
2018-05-03T10:05:00.055Z,24.86
2018-05-03T10:05:59.696Z,24.85
2018-05-03T10:06:59.725Z,24.98
2018-05-03T10:07:59.998Z,24.99
2018-05-03T10:08:59.757Z,25.17
2018-05-03T10:10:00.067Z,25.13
2018-05-03T10:10:59.536Z,25.23
2018-05-03T10:12:00.126Z,25.22
2018-05-03T10:13:00.138Z,25.31
2018-05-03T10:13:59.866Z,25.47
2018-05-03T10:15:00.194Z,25.46
2018-05-03T10:16:00.197Z,25.55
2018-05-03T10:17:00.219Z,25.6
2018-05-03T10:17:59.691Z,25.68
2018-05-03T10:19:00.013Z,25.7
2018-05-03T10:20:00.293Z,25.8
2018-05-03T10:21:00.325Z,25.85
2018-05-03T10:22:00.331Z,25.95
2018-05-03T10:22:59.809Z,25.91
2018-05-03T10:24:00.418Z,25.95
2018-05-03T10:25:00.423Z,26.06
2018-05-03T10:26:00.158Z,26.07
2018-05-03T10:27:00.208Z,26.06
2018-05-03T10:28:00.495Z,26.22
2018-05-03T10:29:00.602Z,26.15
2018-05-03T10:30:00.545Z,26.09
2018-05-03T10:31:00.558Z,26.23
2018-05-03T10:32:00.596Z,26.25
2018-05-03T10:33:00.620Z,26.29
2018-05-03T10:34:00.639Z,26.34
2018-05-03T10:35:00.451Z,26.38
2018-05-03T10:36:00.910Z,26.43
2018-05-03T10:37:00.454Z,26.51
2018-05-03T10:38:00.478Z,26.52
2018-05-03T10:39:00.480Z,26.6
2018-05-03T10:40:00.516Z,26.6
2018-05-03T10:41:00.818Z,26.65
2018-05-03T10:42:00.971Z,26.74
2018-05-03T10:43:00.875Z,26.75
2018-05-03T10:44:00.629Z,26.8
2018-05-03T10:45:00.628Z,26.89
2018-05-03T10:46:00.935Z,26.85
2018-05-03T10:47:00.972Z,26.92
2018-05-03T10:48:00.734Z,26.93
2018-05-03T10:49:01.139Z,26.97
2018-05-03T10:50:01.061Z,27.03
2018-05-03T10:51:01.066Z,27.02
2018-05-03T10:52:01.099Z,26.99
2018-05-03T10:53:00.832Z,27.07
2018-05-03T10:54:01.166Z,27.12
2018-05-03T10:55:00.903Z,27.12
2018-05-03T10:56:00.924Z,27.11
2018-05-03T10:57:00.938Z,27.21
2018-05-03T10:58:01.236Z,27.17
2018-05-03T10:59:00.977Z,27.26
2018-05-03T11:00:01.296Z,27.21
2018-05-03T11:01:01.326Z,27.33
2018-05-03T11:02:01.370Z,27.42
2018-05-03T11:03:01.377Z,27.4
2018-05-03T11:04:01.116Z,27.47
2018-05-03T11:05:01.428Z,27.51
2018-05-03T11:06:01.455Z,27.49
2018-05-03T11:07:01.247Z,27.54
2018-05-03T11:08:01.521Z,27.58
2018-05-03T11:09:01.532Z,27.59
2018-05-03T11:10:01.286Z,27.65
2018-05-03T11:11:01.352Z,27.71
2018-05-03T11:12:01.312Z,27.67
2018-05-03T11:13:01.653Z,27.78
2018-05-03T11:14:01.387Z,27.83
2018-05-03T11:15:01.691Z,27.86
2018-05-03T11:16:01.723Z,27.78
2018-05-03T11:17:01.448Z,27.98
2018-05-03T11:18:01.779Z,28.02
2018-05-03T11:19:01.529Z,28.07
2018-05-03T11:20:01.530Z,28.04
2018-05-03T11:21:01.560Z,28.02
2018-05-03T11:22:01.871Z,28.14
2018-05-03T11:23:01.880Z,28.2
2018-05-03T11:24:01.912Z,28.32
2018-05-03T11:25:01.932Z,28.27
2018-05-03T11:26:02.141Z,28.37
2018-05-03T11:27:01.736Z,28.41
2018-05-03T11:28:02.038Z,28.39
2018-05-03T11:29:02.078Z,28.42
2018-05-03T11:30:02.098Z,28.47
2018-05-03T11:31:02.127Z,28.51
2018-05-03T11:32:02.125Z,28.59
2018-05-03T11:33:01.900Z,28.62
2018-05-03T11:34:02.175Z,28.69
2018-05-03T11:35:01.931Z,28.74
2018-05-03T11:36:01.979Z,28.7
2018-05-03T11:37:02.484Z,28.76
2018-05-03T11:38:02.291Z,28.79
2018-05-03T11:39:02.337Z,28.82
2018-05-03T11:40:02.082Z,28.89
2018-05-03T11:41:02.094Z,28.89
2018-05-03T11:42:02.408Z,28.96
2018-05-03T11:43:02.427Z,29.02
2018-05-03T11:44:02.476Z,29.01
2018-05-03T11:45:02.204Z,29.04
2018-05-03T11:46:02.240Z,29.07
2018-05-03T11:47:02.259Z,29.1
2018-05-03T11:48:02.574Z,29.14
2018-05-03T11:49:02.595Z,29.12
2018-05-03T11:50:02.634Z,29.22
2018-05-03T11:51:02.643Z,29.32
2018-05-03T11:52:02.413Z,29.29
2018-05-03T11:53:02.695Z,29.32
2018-05-03T11:54:02.724Z,29.29
2018-05-03T11:55:02.766Z,29.34
2018-05-03T11:56:02.505Z,29.35
2018-05-03T11:57:02.534Z,29.44
2018-05-03T11:58:02.570Z,29.53
2018-05-03T11:59:02.620Z,29.5
2018-05-03T12:00:02.617Z,29.57
2018-05-03T12:01:02.926Z,29.56
2018-05-03T12:02:02.946Z,29.57
2018-05-03T12:03:02.685Z,29.53
2018-05-03T12:04:03.010Z,29.63
2018-05-03T12:05:03.008Z,29.68
2018-05-03T12:06:03.252Z,29.75
2018-05-03T12:07:03.084Z,29.72
2018-05-03T12:08:02.547Z,29.76
2018-05-03T12:09:02.588Z,29.79
2018-05-03T12:10:03.179Z,29.82
2018-05-03T12:11:02.912Z,29.81
2018-05-03T12:12:02.945Z,29.97
2018-05-03T12:13:02.952Z,29.94
2018-05-03T12:14:03.016Z,29.98
2018-05-03T12:15:03.016Z,30
2018-05-03T12:16:03.336Z,30.08
2018-05-03T12:17:03.074Z,30.15
2018-05-03T12:18:03.374Z,30.06
2018-05-03T12:19:03.152Z,30.18
2018-05-03T12:20:03.457Z,30.18
2018-05-03T12:21:03.188Z,30.15
2018-05-03T12:22:03.509Z,30.19
2018-05-03T12:23:03.531Z,30.23
2018-05-03T12:24:03.539Z,30.28
2018-05-03T12:25:03.602Z,30.31
2018-05-03T12:26:03.348Z,30.3
2018-05-03T12:27:03.352Z,30.3
2018-05-03T12:28:03.672Z,30.47
2018-05-03T12:29:03.432Z,30.37
2018-05-03T12:30:03.446Z,30.35
2018-05-03T12:31:03.769Z,30.46
2018-05-03T12:32:03.521Z,30.53
2018-05-03T12:33:03.545Z,30.55
2018-05-03T12:34:03.857Z,30.59
2018-05-03T12:35:03.733Z,30.61
2018-05-03T12:36:03.360Z,30.62
2018-05-03T12:37:03.923Z,30.65
2018-05-03T12:38:03.958Z,30.61
2018-05-03T12:39:03.690Z,30.69
2018-05-03T12:40:04.011Z,30.7
2018-05-03T12:41:04.046Z,30.77
2018-05-03T12:42:04.084Z,30.7
2018-05-03T12:43:04.084Z,30.8
2018-05-03T12:44:03.855Z,30.81
2018-05-03T12:45:04.151Z,30.87
2018-05-03T12:46:04.190Z,30.85
2018-05-03T12:47:04.187Z,30.87
2018-05-03T12:48:04.235Z,30.97
2018-05-03T12:49:03.695Z,31.03
2018-05-03T12:50:04.293Z,31
2018-05-03T12:51:04.047Z,31.06
2018-05-03T12:52:04.068Z,31.03
2018-05-03T12:53:04.401Z,31.12
2018-05-03T12:54:04.465Z,31.12
2018-05-03T12:55:04.442Z,31.18
2018-05-03T12:56:04.476Z,31.24